createdAt,value
2022-12-23T00:00:46.287Z,17.07
2022-12-23T00:03:35.047Z,17.27
2022-12-23T00:06:23.927Z,17.17
2022-12-23T00:09:12.632Z,17.30
2022-12-23T00:12:20.249Z,17.33
2022-12-23T00:15:09.416Z,16.60
2022-12-23T00:17:58.041Z,17.33
2022-12-23T00:20:46.689Z,17.03
2022-12-23T00:23:37.792Z,17.10
2022-12-23T00:26:27.323Z,17.53
2022-12-23T00:29:17.249Z,15.83
2022-12-23T00:34:40.302Z,15.73
2022-12-23T00:37:28.818Z,16.00
2022-12-23T00:40:34.960Z,15.90
2022-12-23T00:43:23.891Z,15.13
2022-12-23T00:46:13.872Z,16.30
2022-12-23T00:49:20.248Z,16.70
2022-12-23T00:52:10.732Z,16.00
2022-12-23T00:54:59.268Z,15.30
2022-12-23T00:57:47.803Z,15.60
2022-12-23T01:00:54.146Z,15.00
2022-12-23T01:04:01.821Z,15.50
2022-12-23T01:06:50.371Z,14.87
2022-12-23T01:09:38.922Z,16.00
2022-12-23T01:12:27.863Z,16.73
2022-12-23T01:15:17.628Z,15.87
2022-12-23T01:18:06.249Z,16.27
2022-12-23T01:20:56.151Z,17.03
2022-12-23T01:23:44.657Z,14.77
2022-12-23T01:26:33.177Z,15.10
2022-12-23T01:29:21.724Z,16.30
2022-12-23T01:32:10.300Z,15.00
2022-12-23T01:34:58.913Z,15.03
2022-12-23T01:37:48.814Z,15.83
2022-12-23T01:40:40.431Z,16.77
2022-12-23T01:43:44.771Z,15.93
2022-12-23T01:46:33.354Z,14.90
2022-12-23T01:49:22.043Z,15.33
2022-12-23T01:52:10.846Z,15.33
2022-12-23T01:55:00.794Z,15.17
2022-12-23T01:57:49.990Z,16.07
2022-12-23T02:00:56.520Z,15.40
2022-12-23T02:03:45.536Z,16.57
2022-12-23T02:06:58.851Z,14.10
2022-12-23T02:09:47.413Z,15.47
2022-12-23T02:12:45.636Z,14.87
2022-12-23T02:15:56.230Z,16.27
2022-12-23T02:19:05.494Z,16.00
2022-12-23T02:22:06.242Z,15.80
2022-12-23T02:25:25.017Z,14.80
2022-12-23T02:28:25.783Z,14.13
2022-12-23T02:31:20.229Z,16.40
2022-12-23T02:34:12.098Z,15.90
2022-12-23T02:37:05.653Z,15.23
2022-12-23T02:39:56.749Z,15.80
2022-12-23T02:42:47.121Z,15.47
2022-12-23T02:45:38.778Z,15.87
2022-12-23T02:48:31.232Z,16.40
2022-12-23T02:51:22.827Z,19.17
2022-12-23T02:54:14.174Z,16.90
2022-12-23T02:57:04.384Z,16.67
2022-12-23T02:59:53.828Z,18.33
2022-12-23T03:02:43.233Z,17.20
2022-12-23T03:05:35.292Z,19.77
2022-12-23T03:08:26.116Z,21.10
2022-12-23T03:11:16.162Z,21.47
2022-12-23T03:14:25.023Z,22.50
2022-12-23T03:17:19.989Z,19.10
2022-12-23T03:20:14.643Z,20.53
2022-12-23T03:23:11.840Z,20.33
2022-12-23T03:26:03.698Z,20.40
2022-12-23T03:28:58.169Z,21.63
2022-12-23T03:31:48.294Z,21.37
2022-12-23T03:34:41.253Z,19.30
2022-12-23T03:37:36.558Z,21.10
2022-12-23T03:40:30.701Z,21.87
2022-12-23T03:43:23.356Z,22.07
2022-12-23T03:46:16.917Z,21.37
2022-12-23T03:49:08.535Z,23.80
2022-12-23T03:52:01.155Z,20.90
2022-12-23T03:54:57.999Z,20.47
2022-12-23T03:57:50.566Z,20.03
2022-12-23T04:00:47.473Z,20.63
2022-12-23T04:03:38.472Z,21.80
2022-12-23T04:06:33.153Z,20.10
2022-12-23T04:09:24.301Z,24.10
2022-12-23T04:12:12.994Z,22.07
2022-12-23T04:15:07.519Z,20.93
2022-12-23T04:17:59.624Z,19.90
2022-12-23T04:20:49.934Z,20.30
2022-12-23T04:23:41.381Z,22.57
2022-12-23T04:26:29.931Z,21.57
2022-12-23T04:29:22.830Z,21.87
2022-12-23T04:32:14.145Z,20.43
2022-12-23T04:35:05.741Z,23.37
2022-12-23T04:37:55.456Z,23.30
2022-12-23T04:40:46.904Z,21.80
2022-12-23T04:43:37.628Z,21.13
2022-12-23T04:46:32.995Z,23.47
2022-12-23T04:49:25.651Z,22.17
2022-12-23T04:52:16.604Z,21.43
2022-12-23T04:55:08.237Z,22.87
2022-12-23T04:57:56.804Z,21.23
2022-12-23T05:00:48.196Z,23.33
2022-12-23T05:03:36.949Z,21.57
2022-12-23T05:06:29.043Z,21.60
2022-12-23T05:09:21.662Z,22.50
2022-12-23T05:12:16.506Z,20.40
2022-12-23T05:15:16.521Z,22.40
2022-12-23T05:18:05.218Z,22.83
2022-12-23T05:20:53.801Z,20.67
2022-12-23T05:23:51.160Z,22.20
2022-12-23T05:26:44.948Z,22.53
2022-12-23T05:29:39.941Z,22.30
2022-12-23T05:32:34.229Z,20.93
2022-12-23T05:35:22.803Z,22.67
2022-12-23T05:38:12.573Z,21.53
2022-12-23T05:41:04.081Z,23.77
2022-12-23T05:43:53.842Z,20.40
2022-12-23T05:46:48.139Z,20.37
2022-12-23T05:49:45.427Z,20.90
2022-12-23T05:52:35.881Z,20.20
2022-12-23T05:55:40.412Z,20.63
2022-12-23T05:58:37.546Z,22.20
2022-12-23T06:01:26.208Z,20.53
2022-12-23T06:04:17.562Z,21.83
2022-12-23T06:07:06.188Z,19.97
2022-12-23T06:09:59.372Z,20.70
2022-12-23T06:12:56.621Z,20.23
2022-12-23T06:15:46.549Z,18.93
2022-12-23T06:18:42.418Z,19.63
2022-12-23T06:21:34.087Z,20.07
2022-12-23T06:24:29.906Z,18.73
2022-12-23T06:27:18.542Z,19.40
2022-12-23T06:30:08.904Z,18.93
2022-12-23T06:33:17.921Z,20.33
2022-12-23T06:36:11.184Z,17.70
2022-12-23T06:39:03.846Z,19.40
2022-12-23T06:41:52.405Z,19.30
2022-12-23T06:44:40.897Z,17.87
2022-12-23T06:47:31.430Z,18.13
2022-12-23T06:50:39.740Z,18.17
2022-12-23T06:53:31.043Z,18.13
2022-12-23T06:56:19.991Z,18.40
2022-12-23T06:59:15.785Z,17.40
2022-12-23T07:02:06.472Z,18.60
2022-12-23T07:05:00.458Z,18.43
2022-12-23T07:07:52.782Z,17.20
2022-12-23T07:10:44.285Z,18.10
2022-12-23T07:13:34.680Z,17.90
2022-12-23T07:16:25.465Z,18.50
2022-12-23T07:19:15.329Z,17.40
2022-12-23T07:22:03.953Z,17.80
2022-12-23T07:24:53.827Z,19.07
2022-12-23T07:27:44.941Z,18.70
2022-12-23T07:30:36.393Z,18.67
2022-12-23T07:33:24.953Z,18.17
2022-12-23T07:36:17.809Z,18.30
2022-12-23T07:39:06.426Z,17.83
2022-12-23T07:42:25.148Z,17.70
2022-12-23T07:45:11.981Z,17.63
2022-12-23T07:48:03.099Z,19.10
2022-12-23T07:50:51.662Z,17.73
2022-12-23T07:53:44.783Z,16.53
2022-12-23T07:56:33.380Z,16.90
2022-12-23T07:59:27.967Z,16.27
2022-12-23T08:02:16.888Z,17.33
2022-12-23T08:05:05.956Z,17.17
2022-12-23T08:07:54.505Z,15.50
2022-12-23T08:10:48.285Z,14.73
2022-12-23T08:13:38.180Z,17.10
2022-12-23T08:16:28.191Z,17.20
2022-12-23T08:19:17.149Z,16.47
2022-12-23T08:22:05.686Z,17.30
2022-12-23T08:24:57.160Z,15.67
2022-12-23T08:27:45.715Z,16.60
2022-12-23T08:30:35.306Z,15.83
2022-12-23T08:33:25.245Z,16.13
2022-12-23T08:36:22.215Z,16.50
2022-12-23T08:39:13.361Z,18.10
2022-12-23T08:42:01.980Z,17.70
2022-12-23T08:44:50.539Z,17.80
2022-12-23T08:47:39.130Z,16.93
2022-12-23T08:50:29.089Z,17.00
2022-12-23T08:53:17.692Z,15.40
2022-12-23T08:56:06.950Z,15.53
2022-12-23T08:58:56.472Z,17.70
2022-12-23T09:01:45.254Z,17.67
2022-12-23T09:04:35.094Z,18.17
2022-12-23T09:07:24.993Z,19.17
2022-12-23T09:10:15.680Z,18.27
2022-12-23T09:13:05.934Z,18.60
2022-12-23T09:15:58.976Z,17.93
2022-12-23T09:18:47.713Z,16.93
2022-12-23T09:21:37.784Z,18.27
2022-12-23T09:24:27.728Z,17.20
2022-12-23T09:27:16.407Z,16.90
2022-12-23T09:30:05.003Z,17.40
2022-12-23T09:32:53.550Z,18.73
2022-12-23T09:35:42.112Z,15.47
2022-12-23T09:38:30.629Z,16.90
2022-12-23T09:41:25.915Z,16.20
2022-12-23T09:44:20.112Z,18.33
2022-12-23T09:47:12.577Z,17.00
2022-12-23T09:50:02.730Z,16.80
2022-12-23T09:52:54.460Z,17.70
2022-12-23T09:55:47.953Z,18.20
2022-12-23T09:58:43.773Z,17.57
2022-12-23T10:01:34.498Z,17.90
2022-12-23T10:04:44.904Z,16.57
2022-12-23T10:07:37.019Z,17.83
2022-12-23T10:10:29.088Z,16.60
2022-12-23T10:13:21.187Z,16.70
2022-12-23T10:16:14.631Z,17.67
2022-12-23T10:19:04.878Z,16.13
2022-12-23T10:21:54.149Z,16.37
2022-12-23T10:24:46.978Z,18.07
2022-12-23T10:27:36.822Z,16.77
2022-12-23T10:30:53.798Z,15.17
2022-12-23T10:33:41.011Z,15.83
2022-12-23T10:36:34.115Z,16.73
2022-12-23T10:39:25.988Z,17.20
2022-12-23T10:42:19.712Z,17.13
2022-12-23T10:45:16.809Z,18.67
2022-12-23T10:48:14.517Z,17.50
2022-12-23T10:51:05.809Z,16.80
2022-12-23T10:53:55.925Z,17.23
2022-12-23T10:56:44.782Z,16.07
2022-12-23T10:59:36.284Z,15.03
2022-12-23T11:02:45.819Z,14.63
2022-12-23T11:05:35.240Z,14.03
2022-12-23T11:08:25.935Z,15.37
2022-12-23T11:11:14.459Z,14.80
2022-12-23T11:14:02.978Z,14.47
2022-12-23T11:16:54.577Z,13.80
2022-12-23T11:19:43.170Z,13.00
2022-12-23T11:22:31.695Z,13.60
2022-12-23T11:25:29.027Z,14.03
2022-12-23T11:28:22.868Z,14.17
2022-12-23T11:31:14.293Z,14.33
2022-12-23T11:34:05.144Z,13.17
2022-12-23T11:36:58.668Z,14.90
2022-12-23T11:39:53.763Z,14.40
2022-12-23T11:42:44.380Z,15.40
2022-12-23T11:45:38.506Z,16.10
2022-12-23T11:48:31.019Z,16.13
2022-12-23T11:51:26.487Z,15.10
2022-12-23T11:54:19.253Z,15.27
2022-12-23T11:57:09.124Z,16.87
2022-12-23T12:00:01.633Z,15.47
2022-12-23T12:02:52.338Z,17.10
2022-12-23T12:05:47.967Z,15.73
2022-12-23T12:08:38.248Z,14.83
2022-12-23T12:11:28.164Z,14.60
2022-12-23T12:14:22.636Z,13.90
2022-12-23T12:17:19.935Z,13.90
2022-12-23T12:20:12.470Z,13.80
2022-12-23T12:23:02.947Z,13.67
2022-12-23T12:25:54.611Z,12.40
2022-12-23T12:28:44.223Z,12.87
2022-12-23T12:31:36.171Z,11.00
2022-12-23T12:34:35.813Z,14.43
2022-12-23T12:37:28.931Z,13.00
2022-12-23T12:40:22.679Z,11.93
2022-12-23T12:43:18.003Z,12.27
2022-12-23T12:46:10.497Z,13.57
2022-12-23T12:49:03.654Z,12.60
2022-12-23T12:52:00.035Z,12.63
2022-12-23T12:54:51.776Z,13.33
2022-12-23T12:57:41.853Z,12.10
2022-12-23T13:00:41.216Z,11.47
2022-12-23T13:03:35.836Z,10.80
2022-12-23T13:06:27.922Z,12.47
2022-12-23T13:09:22.524Z,12.17
2022-12-23T13:12:15.676Z,11.70
2022-12-23T13:15:06.110Z,12.20
2022-12-23T13:18:05.149Z,12.60
2022-12-23T13:20:56.183Z,12.70
2022-12-23T13:23:49.007Z,12.03
2022-12-23T13:26:40.414Z,11.47
2022-12-23T13:29:35.489Z,11.60
2022-12-23T13:32:30.596Z,12.17
2022-12-23T13:35:26.107Z,11.83
2022-12-23T13:38:20.006Z,10.60
2022-12-23T13:41:15.042Z,12.17
2022-12-23T13:44:06.235Z,12.40
2022-12-23T13:46:59.752Z,11.23
2022-12-23T13:49:53.018Z,11.00
2022-12-23T13:52:51.475Z,11.73
2022-12-23T13:55:49.494Z,11.27
2022-12-23T13:58:39.716Z,14.03
2022-12-23T14:01:39.762Z,13.63
2022-12-23T14:04:36.667Z,13.40
2022-12-23T14:07:25.612Z,14.37
2022-12-23T14:10:21.784Z,14.10
2022-12-23T14:13:10.393Z,14.67
2022-12-23T14:16:21.474Z,13.83
2022-12-23T14:19:28.307Z,14.17
2022-12-23T14:22:27.034Z,13.57
2022-12-23T14:25:33.241Z,13.87
2022-12-23T14:28:29.015Z,14.13
2022-12-23T14:31:31.641Z,13.37
2022-12-23T14:34:30.390Z,15.00
2022-12-23T14:37:37.554Z,13.93
2022-12-23T14:40:44.593Z,14.70
2022-12-23T14:43:34.878Z,14.10
2022-12-23T14:46:47.417Z,14.17
2022-12-23T14:49:41.076Z,14.27
2022-12-23T14:52:49.404Z,16.13
2022-12-23T14:55:47.864Z,17.20
2022-12-23T14:59:00.478Z,17.60
2022-12-23T15:01:49.923Z,17.93
2022-12-23T15:04:46.912Z,15.77
2022-12-23T15:07:36.155Z,18.57
2022-12-23T15:10:25.749Z,19.47
2022-12-23T15:13:14.858Z,18.77
2022-12-23T15:16:03.517Z,18.37
2022-12-23T15:18:57.780Z,17.97
2022-12-23T15:21:55.670Z,18.47
2022-12-23T15:24:48.989Z,18.80
2022-12-23T15:27:40.935Z,17.57
2022-12-23T15:30:32.417Z,18.27
2022-12-23T15:36:36.275Z,18.60
2022-12-23T15:39:31.334Z,18.47
2022-12-23T15:42:23.412Z,19.17
2022-12-23T15:45:28.758Z,17.13
2022-12-23T15:48:24.864Z,18.50
2022-12-23T15:51:21.961Z,18.27
2022-12-23T15:54:26.052Z,18.20
2022-12-23T15:57:19.902Z,19.23
2022-12-23T16:00:19.435Z,17.47
2022-12-23T16:03:13.741Z,16.70
2022-12-23T16:06:08.614Z,18.87
2022-12-23T16:08:57.818Z,20.47
2022-12-23T16:11:52.951Z,17.63
2022-12-23T16:14:43.179Z,17.27
2022-12-23T16:17:35.921Z,18.27
2022-12-23T16:20:25.981Z,18.03
2022-12-23T16:23:15.102Z,18.50
2022-12-23T16:26:04.073Z,17.37
2022-12-23T16:28:54.057Z,15.77
2022-12-23T16:31:51.241Z,19.17
2022-12-23T16:34:44.896Z,16.97
2022-12-23T16:37:35.824Z,16.23
2022-12-23T16:40:24.995Z,17.73
2022-12-23T16:43:13.866Z,16.37
2022-12-23T16:46:02.549Z,18.47
2022-12-23T16:48:53.245Z,18.37
2022-12-23T16:51:44.261Z,17.10
2022-12-23T16:54:32.790Z,17.70
2022-12-23T16:57:23.744Z,19.50
2022-12-23T17:00:15.945Z,19.80
2022-12-23T17:03:04.844Z,18.10
2022-12-23T17:05:54.718Z,19.13
2022-12-23T17:08:43.560Z,17.20
2022-12-23T17:11:37.064Z,18.63
2022-12-23T17:14:26.264Z,20.23
2022-12-23T17:17:15.669Z,19.00
2022-12-23T17:20:04.441Z,19.37
2022-12-23T17:22:55.582Z,17.43
2022-12-23T17:25:44.155Z,17.60
2022-12-23T17:28:34.052Z,18.30
2022-12-23T17:31:27.194Z,17.93
2022-12-23T17:34:18.108Z,17.50
2022-12-23T17:37:07.607Z,19.10
2022-12-23T17:39:57.526Z,19.17
2022-12-23T17:42:46.109Z,19.50
2022-12-23T17:45:34.657Z,20.20
2022-12-23T17:48:29.576Z,19.80
2022-12-23T17:51:21.189Z,18.50
2022-12-23T17:54:18.317Z,18.03
2022-12-23T17:57:16.176Z,18.90
2022-12-23T18:00:05.301Z,19.70
2022-12-23T18:02:53.839Z,17.97
2022-12-23T18:05:42.446Z,18.80
2022-12-23T18:08:30.996Z,18.50
2022-12-23T18:11:22.137Z,18.40
2022-12-23T18:14:14.906Z,19.07
2022-12-23T18:17:03.524Z,17.83
2022-12-23T18:19:52.716Z,19.40
2022-12-23T18:22:41.297Z,18.90
2022-12-23T18:25:29.992Z,17.80
2022-12-23T18:28:18.529Z,16.93
2022-12-23T18:31:08.662Z,16.83
2022-12-23T18:33:57.292Z,14.67
2022-12-23T18:36:48.014Z,16.60
2022-12-23T18:39:36.706Z,16.93
2022-12-23T18:42:25.247Z,17.30
2022-12-23T18:45:21.964Z,15.67
2022-12-23T18:48:12.077Z,16.10
2022-12-23T18:51:00.655Z,18.23
2022-12-23T18:53:49.628Z,18.87
2022-12-23T18:56:38.371Z,17.73
2022-12-23T18:59:29.900Z,18.10
2022-12-23T19:02:18.735Z,19.00
2022-12-23T19:05:09.272Z,17.57
2022-12-23T19:07:58.828Z,18.47
2022-12-23T19:10:48.295Z,18.17
2022-12-23T19:13:36.814Z,18.40
2022-12-23T19:16:27.495Z,18.80
2022-12-23T19:19:16.079Z,18.90
2022-12-23T19:22:06.065Z,18.23
2022-12-23T19:25:05.175Z,18.83
2022-12-23T19:27:54.749Z,18.87
2022-12-23T19:30:43.468Z,17.90
2022-12-23T19:33:35.029Z,18.97
2022-12-23T19:36:25.439Z,20.37
2022-12-23T19:39:17.843Z,19.90
2022-12-23T19:42:06.433Z,20.17
2022-12-23T19:44:54.969Z,20.17
2022-12-23T19:47:43.565Z,19.00
2022-12-23T19:50:32.198Z,18.10
2022-12-23T19:53:20.765Z,18.00
2022-12-23T19:56:15.604Z,20.60
2022-12-23T19:59:04.460Z,20.33
2022-12-23T20:01:53.178Z,19.23
2022-12-23T20:04:41.793Z,21.00
2022-12-23T20:07:30.510Z,19.87
2022-12-23T20:10:19.127Z,19.70
2022-12-23T20:13:09.018Z,20.50
2022-12-23T20:15:58.926Z,20.80
2022-12-23T20:18:47.481Z,20.50
2022-12-23T20:21:37.393Z,20.17
2022-12-23T20:24:25.979Z,18.63
2022-12-23T20:27:16.127Z,18.33
2022-12-23T20:30:07.153Z,18.80
2022-12-23T20:32:59.202Z,19.50
2022-12-23T20:35:59.048Z,18.67
2022-12-23T20:38:56.785Z,17.83
2022-12-23T20:41:50.611Z,17.87
2022-12-23T20:44:40.411Z,17.93
2022-12-23T20:47:30.332Z,17.60
2022-12-23T20:50:18.998Z,15.53
2022-12-23T20:53:07.683Z,16.57
2022-12-23T20:55:56.214Z,15.90
2022-12-23T20:58:59.054Z,17.60
2022-12-23T21:01:47.670Z,16.03
2022-12-23T21:04:43.658Z,15.30
2022-12-23T21:07:35.035Z,15.60
2022-12-23T21:10:25.553Z,16.47
2022-12-23T21:13:17.079Z,16.97
2022-12-23T21:16:13.094Z,16.50
2022-12-23T21:19:01.676Z,15.23
2022-12-23T21:21:54.604Z,15.30
2022-12-23T21:24:43.163Z,15.20
2022-12-23T21:27:34.556Z,17.20
2022-12-23T21:30:23.097Z,16.73
2022-12-23T21:33:14.818Z,16.67
2022-12-23T21:36:07.765Z,15.30
2022-12-23T21:38:57.984Z,17.10
2022-12-23T21:41:53.832Z,18.07
2022-12-23T21:44:42.378Z,16.60
2022-12-23T21:47:31.006Z,16.97
2022-12-23T21:50:19.552Z,17.53
2022-12-23T21:53:16.908Z,16.83
2022-12-23T21:56:18.860Z,16.33
2022-12-23T21:59:11.585Z,18.00
2022-12-23T22:02:06.595Z,17.03
2022-12-23T22:04:55.190Z,17.40
2022-12-23T22:07:43.727Z,16.70
2022-12-23T22:10:42.008Z,15.43
2022-12-23T22:13:34.194Z,14.17
2022-12-23T22:16:30.058Z,16.60
2022-12-23T22:19:21.743Z,15.07
2022-12-23T22:22:10.269Z,14.87
2022-12-23T22:24:59.783Z,13.40
2022-12-23T22:27:48.302Z,13.57
2022-12-23T22:30:38.205Z,12.80
2022-12-23T22:33:26.759Z,13.47
2022-12-23T22:36:15.959Z,13.00
2022-12-23T22:39:07.772Z,12.60
2022-12-23T22:41:56.651Z,11.20
2022-12-23T22:44:46.428Z,12.43
2022-12-23T22:47:43.540Z,11.30
2022-12-23T22:50:33.104Z,11.93
2022-12-23T22:53:29.377Z,12.10
2022-12-23T22:56:21.675Z,11.87
2022-12-23T22:59:14.297Z,11.30
2022-12-23T23:02:05.783Z,11.63
2022-12-23T23:04:57.067Z,11.23
2022-12-23T23:07:46.726Z,13.13
2022-12-23T23:10:36.489Z,11.03
2022-12-23T23:13:25.122Z,11.03
2022-12-23T23:16:16.531Z,10.13
2022-12-23T23:19:05.248Z,10.87
2022-12-23T23:21:57.470Z,10.30
2022-12-23T23:24:46.034Z,11.03
2022-12-23T23:27:38.226Z,10.70
2022-12-23T23:30:29.258Z,10.27
2022-12-23T23:33:20.612Z,10.97
2022-12-23T23:36:09.658Z,10.73
2022-12-23T23:39:05.418Z,11.03
2022-12-23T23:41:56.290Z,10.30
2022-12-23T23:44:46.456Z,10.13
2022-12-23T23:47:37.658Z,11.50
2022-12-23T23:50:26.233Z,10.13
2022-12-23T23:53:15.165Z,10.67
2022-12-23T23:56:08.026Z,11.20
2022-12-23T23:59:00.097Z,11.37
